Time;durP1;ratioP1;P1;durP2;ratioP2;P2;SDS_P1;SDS_P2;PMS_P1;PMS_P2;Temp;Humidity;BMP_temperature;BMP_pressure;BME280_temperature;BME280_humidity;BME280_pressure;Samples;Min_cycle;Max_cycle;Signal;HPM_P1;HPM_P2
2024/03/07 00:01:03;;;;;;;23.02;16.85;;;5.90;99.90;;;;;;5121830;27;20153;-61
2024/03/07 00:03:29;;;;;;;23.58;17.08;;;5.90;99.90;;;;;;5123290;27;20047;-61
2024/03/07 00:05:54;;;;;;;21.15;16.50;;;5.90;99.90;;;;;;5114649;27;20050;-61
2024/03/07 00:08:21;;;;;;;23.38;16.83;;;5.90;99.90;;;;;;5123322;27;20035;-62
2024/03/07 00:10:47;;;;;;;21.85;15.57;;;5.90;99.90;;;;;;5114204;27;20075;-61
2024/03/07 00:13:13;;;;;;;23.00;16.65;;;5.90;99.90;;;;;;5119217;27;20040;-62
2024/03/07 00:15:40;;;;;;;23.33;16.58;;;5.90;99.90;;;;;;5119392;27;20038;-61
2024/03/07 00:18:06;;;;;;;21.35;16.02;;;5.90;99.90;;;;;;5111012;27;20101;-61
2024/03/07 00:20:31;;;;;;;21.05;16.25;;;5.80;99.90;;;;;;5122228;27;20551;-62
2024/03/07 00:22:57;;;;;;;23.17;16.30;;;5.90;99.90;;;;;;5122512;27;20042;-61
2024/03/07 00:25:23;;;;;;;22.77;16.30;;;5.90;99.90;;;;;;5119088;27;20689;-61
2024/03/07 00:27:49;;;;;;;20.67;15.50;;;5.90;99.90;;;;;;5121235;27;20497;-61
2024/03/07 00:30:18;;;;;;;25.05;16.77;;;5.80;99.90;;;;;;5120762;27;20500;-61
2024/03/07 00:32:44;;;;;;;24.00;16.08;;;5.80;99.90;;;;;;5126475;27;20440;-61
2024/03/07 00:35:10;;;;;;;21.15;16.25;;;5.80;99.90;;;;;;5126665;27;20431;-61
2024/03/07 00:37:36;;;;;;;22.98;15.70;;;5.80;99.90;;;;;;5119287;27;20035;-62
2024/03/07 00:40:03;;;;;;;21.58;15.85;;;5.80;99.90;;;;;;5111427;27;20055;-61
2024/03/07 00:42:28;;;;;;;24.50;15.15;;;5.80;99.90;;;;;;5105939;27;20048;-61
2024/03/07 00:44:54;;;;;;;24.02;15.35;;;5.80;99.90;;;;;;5116782;27;20101;-61
2024/03/07 00:47:20;;;;;;;22.80;15.48;;;5.80;99.90;;;;;;5106510;27;20059;-61
2024/03/07 00:49:48;;;;;;;19.70;14.82;;;5.70;99.90;;;;;;5122672;27;20584;-61
2024/03/07 00:52:15;;;;;;;22.73;15.05;;;5.80;99.90;;;;;;5118764;27;20116;-61
2024/03/07 00:54:41;;;;;;;22.35;16.23;;;5.80;99.90;;;;;;5117992;27;20035;-61
2024/03/07 00:57:08;;;;;;;18.83;15.35;;;5.80;99.90;;;;;;5122463;27;20031;-61
2024/03/07 00:59:35;;;;;;;20.20;14.65;;;5.80;99.90;;;;;;5114522;27;20117;-60
2024/03/07 01:02:00;;;;;;;19.98;14.85;;;5.70;99.90;;;;;;5111631;27;20116;-61
2024/03/07 01:04:31;;;;;;;21.92;15.77;;;5.70;99.90;;;;;;5118090;27;20043;-61
2024/03/07 01:07:00;;;;;;;22.52;15.13;;;5.70;99.90;;;;;;5108029;27;20065;-64
2024/03/07 01:09:28;;;;;;;21.95;15.30;;;5.70;99.90;;;;;;5107869;27;20035;-61
2024/03/07 01:11:54;;;;;;;21.20;15.10;;;5.70;99.90;;;;;;5119149;27;20054;-61
2024/03/07 01:14:22;;;;;;;19.77;14.77;;;5.70;99.90;;;;;;5117251;27;20039;-61
2024/03/07 01:16:47;;;;;;;23.48;15.10;;;5.70;99.90;;;;;;5114675;27;20052;-61
2024/03/07 01:19:14;;;;;;;22.35;15.30;;;5.60;99.90;;;;;;5117091;27;20039;-61
2024/03/07 01:21:40;;;;;;;19.65;14.68;;;5.60;99.90;;;;;;5114696;27;20344;-61
2024/03/07 01:24:06;;;;;;;20.00;14.48;;;5.60;99.90;;;;;;5118993;27;20035;-61
2024/03/07 01:26:33;;;;;;;21.17;15.15;;;5.50;99.90;;;;;;5118044;27;20095;-61
2024/03/07 01:28:59;;;;;;;21.52;15.35;;;5.40;99.90;;;;;;5120225;27;20055;-61
2024/03/07 01:31:25;;;;;;;21.85;15.20;;;5.40;99.90;;;;;;5119768;27;20034;-61
2024/03/07 01:33:51;;;;;;;21.70;15.52;;;5.40;99.90;;;;;;5120637;27;20156;-61
2024/03/07 01:36:18;;;;;;;21.05;15.40;;;5.30;99.90;;;;;;5133147;27;20641;-61
2024/03/07 01:38:44;;;;;;;22.42;15.02;;;5.30;99.90;;;;;;5122155;27;20127;-61
2024/03/07 01:41:10;;;;;;;21.83;16.10;;;5.30;99.90;;;;;;5121356;27;20147;-61
2024/03/07 01:43:36;;;;;;;22.48;15.55;;;5.20;99.90;;;;;;5120158;27;20553;-61
2024/03/07 01:46:03;;;;;;;22.83;15.45;;;5.20;99.90;;;;;;5117972;27;20051;-61
2024/03/07 01:48:31;;;;;;;19.33;14.70;;;5.10;99.90;;;;;;5117295;27;20402;-61
2024/03/07 01:51:03;;;;;;;19.60;15.10;;;5.10;99.90;;;;;;5123817;27;20529;-61
2024/03/07 01:53:30;;;;;;;22.13;15.35;;;5.10;99.90;;;;;;5128566;27;20513;-61
2024/03/07 01:55:58;;;;;;;26.33;15.60;;;5.10;99.90;;;;;;5127218;27;20035;-61
2024/03/07 01:58:24;;;;;;;18.80;14.38;;;5.00;99.90;;;;;;5118606;27;20514;-61
2024/03/07 02:00:50;;;;;;;21.17;14.18;;;5.00;99.90;;;;;;5132052;27;20725;-61
2024/03/07 02:03:17;;;;;;;19.73;14.88;;;5.00;99.90;;;;;;5128735;27;20046;-61
2024/03/07 02:05:43;;;;;;;23.20;15.60;;;4.90;99.90;;;;;;5126352;27;20199;-61
2024/03/07 02:08:09;;;;;;;22.67;15.85;;;4.90;99.90;;;;;;5129305;27;20569;-61
2024/03/07 02:10:35;;;;;;;22.63;14.68;;;4.80;99.90;;;;;;5130462;27;20039;-61
2024/03/07 02:13:00;;;;;;;22.25;15.27;;;4.80;99.90;;;;;;5123288;27;20046;-62
2024/03/07 02:15:27;;;;;;;21.92;15.15;;;4.80;99.90;;;;;;5132104;27;20058;-61
2024/03/07 02:17:53;;;;;;;26.30;15.40;;;4.80;99.90;;;;;;5130626;27;20039;-61
2024/03/07 02:20:23;;;;;;;20.50;14.95;;;4.70;99.90;;;;;;5122984;27;20106;-61
2024/03/07 02:22:50;;;;;;;20.75;15.50;;;4.70;99.90;;;;;;5131768;27;20042;-61
2024/03/07 02:25:17;;;;;;;22.60;14.38;;;4.70;99.90;;;;;;5125453;27;20112;-61
2024/03/07 02:27:45;;;;;;;20.30;14.20;;;4.60;99.90;;;;;;5122292;27;20049;-61
2024/03/07 02:30:12;;;;;;;20.37;14.77;;;4.70;99.90;;;;;;5126279;27;20101;-61
2024/03/07 02:32:38;;;;;;;20.40;14.65;;;4.70;99.90;;;;;;5124207;27;20293;-61
2024/03/07 02:35:05;;;;;;;19.42;15.20;;;4.60;99.90;;;;;;5128754;27;20322;-61
2024/03/07 02:37:31;;;;;;;20.08;14.43;;;4.60;99.90;;;;;;5128021;27;20092;-61
2024/03/07 02:39:57;;;;;;;21.83;14.45;;;4.50;99.90;;;;;;5128144;27;20039;-61
2024/03/07 02:42:24;;;;;;;23.02;15.27;;;4.50;99.90;;;;;;5125526;27;20046;-61
2024/03/07 02:44:50;;;;;;;22.58;14.73;;;4.60;99.90;;;;;;5124982;27;20488;-61
2024/03/07 02:47:15;;;;;;;22.35;14.93;;;4.40;99.90;;;;;;5121733;27;20042;-61
2024/03/07 02:49:41;;;;;;;24.60;15.43;;;4.40;99.90;;;;;;5125685;27;20097;-61
2024/03/07 02:52:07;;;;;;;20.85;14.77;;;4.40;99.90;;;;;;5122877;27;20104;-61
2024/03/07 02:54:34;;;;;;;20.52;14.20;;;4.40;99.90;;;;;;5123045;27;20131;-61
2024/03/07 02:57:00;;;;;;;19.10;14.63;;;4.30;99.90;;;;;;5126699;27;20035;-61
2024/03/07 02:59:26;;;;;;;23.65;15.15;;;4.30;99.90;;;;;;5122963;27;20103;-61
2024/03/07 03:01:52;;;;;;;18.85;13.73;;;4.30;99.90;;;;;;5123606;27;20047;-61
2024/03/07 03:04:18;;;;;;;20.45;14.75;;;4.30;99.90;;;;;;5126836;27;20041;-61
2024/03/07 03:06:44;;;;;;;20.65;15.90;;;4.20;99.90;;;;;;5123411;27;20502;-61
2024/03/07 03:09:17;;;;;;;19.05;14.15;;;4.20;99.90;;;;;;5123217;27;20086;-61
2024/03/07 03:11:43;;;;;;;21.73;14.57;;;4.20;99.90;;;;;;5128085;27;21010;-61
2024/03/07 03:14:10;;;;;;;18.67;14.57;;;4.20;99.90;;;;;;5121661;27;20118;-62
2024/03/07 03:16:36;;;;;;;19.75;15.00;;;4.10;99.90;;;;;;5123350;27;20043;-61
2024/03/07 03:19:02;;;;;;;21.95;14.90;;;4.10;99.90;;;;;;5120746;27;20035;-61
2024/03/07 03:21:28;;;;;;;23.40;15.70;;;4.10;99.90;;;;;;5129232;27;20042;-61
2024/03/07 03:23:54;;;;;;;18.70;14.23;;;4.00;99.90;;;;;;5126661;27;20039;-61
2024/03/07 03:26:21;;;;;;;22.80;14.93;;;4.00;99.90;;;;;;5124812;27;20113;-61
2024/03/07 03:28:47;;;;;;;19.65;14.23;;;4.00;99.90;;;;;;5124435;27;20551;-61
2024/03/07 03:31:13;;;;;;;22.88;16.02;;;4.00;99.90;;;;;;5121106;27;20512;-62
2024/03/07 03:33:40;;;;;;;20.27;15.02;;;3.90;99.90;;;;;;5125173;27;20117;-61
2024/03/07 03:36:07;;;;;;;22.50;15.93;;;4.00;99.90;;;;;;5127597;27;20118;-61
2024/03/07 03:38:33;;;;;;;23.65;15.35;;;3.90;99.90;;;;;;5120172;27;20040;-61
2024/03/07 03:40:58;;;;;;;22.65;15.30;;;3.90;99.90;;;;;;5128379;27;20046;-62
2024/03/07 03:43:24;;;;;;;20.58;15.15;;;3.80;99.90;;;;;;5128346;27;21302;-61
2024/03/07 03:45:50;;;;;;;24.88;15.80;;;3.80;99.90;;;;;;5114784;27;20420;-61
2024/03/07 03:48:16;;;;;;;21.00;15.88;;;3.80;99.90;;;;;;5120911;27;20413;-61
2024/03/07 03:50:42;;;;;;;20.50;14.80;;;3.80;99.90;;;;;;5111438;27;20039;-62
2024/03/07 03:53:08;;;;;;;21.75;14.98;;;3.80;99.90;;;;;;5117053;27;20054;-61
2024/03/07 03:55:34;;;;;;;21.55;15.07;;;3.80;99.90;;;;;;5127117;27;20035;-61
2024/03/07 03:57:59;;;;;;;20.10;15.18;;;3.80;99.90;;;;;;5120538;27;20043;-62
2024/03/07 04:00:25;;;;;;;21.60;15.50;;;3.80;99.90;;;;;;5119195;27;20413;-61
2024/03/07 04:02:51;;;;;;;20.75;15.18;;;3.80;99.90;;;;;;5120283;27;20043;-62
2024/03/07 04:05:19;;;;;;;21.23;15.30;;;3.80;99.90;;;;;;5121598;27;20154;-61
2024/03/07 04:07:45;;;;;;;20.23;14.68;;;3.70;99.90;;;;;;5121999;27;20118;-62
2024/03/07 04:10:12;;;;;;;19.90;14.13;;;3.70;99.90;;;;;;5130228;27;20175;-61
2024/03/07 04:12:39;;;;;;;20.45;15.65;;;3.70;99.90;;;;;;5114440;27;20512;-61
2024/03/07 04:15:07;;;;;;;22.85;15.55;;;3.70;99.90;;;;;;5123409;27;20049;-61
2024/03/07 04:17:37;;;;;;;22.95;15.80;;;3.70;99.90;;;;;;5117351;27;20142;-61
2024/03/07 04:20:10;;;;;;;20.25;15.65;;;3.70;99.90;;;;;;5126557;27;20038;-61
2024/03/07 04:22:38;;;;;;;22.33;16.10;;;3.60;99.90;;;;;;5113301;27;20067;-61
2024/03/07 04:25:06;;;;;;;24.63;15.13;;;3.60;99.90;;;;;;5120309;27;20100;-61
2024/03/07 04:27:34;;;;;;;20.00;15.40;;;3.60;99.90;;;;;;5116082;27;20044;-61
2024/03/07 04:30:03;;;;;;;22.10;16.15;;;3.60;99.90;;;;;;5120561;27;20520;-61
2024/03/07 04:32:29;;;;;;;23.48;15.45;;;3.60;99.90;;;;;;5116752;27;20054;-62
2024/03/07 04:34:57;;;;;;;23.05;16.55;;;3.50;99.90;;;;;;5114964;27;20035;-61
2024/03/07 04:37:23;;;;;;;24.33;16.80;;;3.60;99.90;;;;;;5118053;27;20513;-61
2024/03/07 04:39:49;;;;;;;21.55;16.00;;;3.60;99.90;;;;;;5114128;27;20561;-61
2024/03/07 04:42:15;;;;;;;26.50;15.98;;;3.60;99.90;;;;;;5123571;27;20114;-62
2024/03/07 04:44:41;;;;;;;22.58;16.20;;;3.50;99.90;;;;;;5125912;27;20031;-61
2024/03/07 04:47:07;;;;;;;20.08;15.45;;;3.50;99.90;;;;;;5129062;27;20038;-61
2024/03/07 04:49:33;;;;;;;24.45;16.90;;;3.50;99.90;;;;;;5120263;27;20043;-61
2024/03/07 04:52:00;;;;;;;20.30;15.88;;;3.50;99.90;;;;;;5121760;27;20031;-61
2024/03/07 04:54:28;;;;;;;22.40;16.65;;;3.40;99.90;;;;;;5121238;27;20126;-61
2024/03/07 04:56:54;;;;;;;21.33;15.48;;;3.40;99.90;;;;;;5115355;27;20126;-61
2024/03/07 04:59:21;;;;;;;24.02;16.73;;;3.40;99.90;;;;;;5120562;27;20031;-61
2024/03/07 05:01:48;;;;;;;25.40;17.70;;;3.40;99.90;;;;;;5109665;27;20039;-61
2024/03/07 05:04:15;;;;;;;21.63;15.70;;;3.40;99.90;;;;;;5109015;27;20103;-61
2024/03/07 05:06:41;;;;;;;22.08;16.23;;;3.30;99.90;;;;;;5109195;27;20290;-62
2024/03/07 05:09:08;;;;;;;28.48;17.00;;;3.30;99.90;;;;;;5114928;27;20047;-62
2024/03/07 05:11:35;;;;;;;23.60;17.98;;;3.20;99.90;;;;;;5119401;27;20035;-61
2024/03/07 05:14:02;;;;;;;22.70;16.95;;;3.20;99.90;;;;;;5107239;27;20501;-61
2024/03/07 05:16:29;;;;;;;24.38;18.13;;;3.20;99.90;;;;;;5108725;27;20043;-61
2024/03/07 05:18:59;;;;;;;26.80;18.38;;;3.20;99.90;;;;;;5111317;27;20043;-61
2024/03/07 05:24:03;;;;;;;24.33;17.88;;;3.10;99.90;;;;;;5110607;27;20051;-61
2024/03/07 05:26:33;;;;;;;26.85;18.48;;;3.10;99.90;;;;;;5117665;27;20054;-61
2024/03/07 05:29:05;;;;;;;28.30;19.40;;;3.10;99.90;;;;;;5118261;27;20043;-61
2024/03/07 05:31:34;;;;;;;24.25;18.92;;;3.10;99.90;;;;;;5124214;27;20453;-61
2024/03/07 05:34:03;;;;;;;28.40;19.67;;;3.10;99.90;;;;;;5125166;27;20374;-61
2024/03/07 05:36:30;;;;;;;;;;;3.10;99.90;;;;;;5123716;27;20035;-62
2024/03/07 05:38:56;;;;;;;26.90;19.63;;;3.10;99.90;;;;;;5123677;27;19919;-61
2024/03/07 05:41:22;;;;;;;29.23;19.60;;;3.00;99.90;;;;;;5122943;27;20046;-61
2024/03/07 05:43:51;;;;;;;30.33;20.23;;;3.00;99.90;;;;;;5120312;27;20040;-61
2024/03/07 05:46:16;;;;;;;26.98;19.23;;;3.00;99.90;;;;;;5119377;27;20142;-61
2024/03/07 05:48:45;;;;;;;26.10;19.10;;;3.00;99.90;;;;;;5125129;27;20127;-61
2024/03/07 05:51:11;;;;;;;27.77;19.90;;;2.90;99.90;;;;;;5123609;27;20081;-61
2024/03/07 05:53:37;;;;;;;29.00;20.17;;;2.90;99.90;;;;;;5125460;27;20122;-62
2024/03/07 05:56:03;;;;;;;25.80;18.92;;;3.00;99.90;;;;;;5123501;27;20074;-62
2024/03/07 05:58:29;;;;;;;27.55;19.77;;;2.90;99.90;;;;;;5124957;27;20034;-62
2024/03/07 06:00:55;;;;;;;29.55;19.80;;;2.90;99.90;;;;;;5122972;27;20031;-62
2024/03/07 06:03:21;;;;;;;28.23;20.17;;;2.80;99.90;;;;;;5121876;27;20087;-62
2024/03/07 06:05:50;;;;;;;28.85;21.08;;;2.90;99.90;;;;;;5120831;27;20427;-62
2024/03/07 06:08:17;;;;;;;30.67;21.73;;;2.90;99.90;;;;;;5122049;27;20079;-61
2024/03/07 06:10:44;;;;;;;29.30;21.50;;;2.90;99.90;;;;;;5121229;27;20462;-61
2024/03/07 06:13:15;;;;;;;33.70;22.60;;;2.80;99.90;;;;;;5121565;27;20050;-62
2024/03/07 06:15:44;;;;;;;32.38;21.33;;;2.80;99.90;;;;;;5125777;27;20142;-62
2024/03/07 06:18:14;;;;;;;37.80;24.15;;;2.80;99.90;;;;;;5121307;27;20034;-62
2024/03/07 06:20:44;;;;;;;33.47;22.77;;;2.80;99.90;;;;;;5123530;27;20481;-61
2024/03/07 06:23:11;;;;;;;37.30;25.42;;;2.90;99.90;;;;;;5116255;27;20043;-62
2024/03/07 06:25:47;;;;;;;36.40;25.00;;;2.90;99.90;;;;;;5122601;27;20058;-63
2024/03/07 06:28:13;;;;;;;42.17;26.52;;;2.80;99.90;;;;;;5113955;27;20040;-62
2024/03/07 06:30:41;;;;;;;40.92;27.35;;;2.90;99.90;;;;;;5123672;27;20103;-62
2024/03/07 06:33:07;;;;;;;46.38;27.92;;;2.70;99.90;;;;;;5123211;27;20094;-63
2024/03/07 06:35:39;;;;;;;45.28;27.65;;;2.80;99.90;;;;;;5126738;27;20635;-62
2024/03/07 06:38:09;;;;;;;44.42;28.52;;;2.80;99.90;;;;;;5126397;27;20507;-62
2024/03/07 06:40:48;;;;;;;49.05;28.02;;;2.70;99.90;;;;;;5118590;27;20510;-62
2024/03/07 06:43:14;;;;;;;46.45;29.02;;;2.70;99.90;;;;;;5123388;27;20050;-62
2024/03/07 06:45:41;;;;;;;45.47;28.70;;;2.70;99.90;;;;;;5127965;27;20035;-62
2024/03/07 06:48:08;;;;;;;49.40;31.30;;;2.60;99.90;;;;;;5127706;27;20528;-62
2024/03/07 06:50:34;;;;;;;51.85;32.42;;;2.70;99.90;;;;;;5124796;27;20035;-62
2024/03/07 06:53:01;;;;;;;52.47;32.60;;;2.70;99.90;;;;;;5125379;27;20568;-62
2024/03/07 06:55:27;;;;;;;57.15;33.17;;;2.70;99.90;;;;;;5125423;27;20119;-62
2024/03/07 06:57:54;;;;;;;64.60;34.30;;;2.70;99.90;;;;;;5121148;27;20574;-62
2024/03/07 07:00:20;;;;;;;75.00;34.40;;;2.70;99.90;;;;;;5120370;27;20346;-62
2024/03/07 07:02:50;;;;;;;66.10;33.95;;;2.70;99.90;;;;;;5117486;27;20050;-62
2024/03/07 07:05:17;;;;;;;81.57;34.88;;;2.60;99.90;;;;;;5121140;27;20679;-62
2024/03/07 07:07:45;;;;;;;70.05;34.63;;;2.60;99.90;;;;;;5128107;27;20070;-63
2024/03/07 07:10:15;;;;;;;75.05;35.88;;;2.70;99.90;;;;;;5131039;27;20314;-62
2024/03/07 07:12:45;;;;;;;72.65;34.90;;;2.60;99.90;;;;;;5124604;27;20493;-63
2024/03/07 07:15:15;;;;;;;80.80;36.45;;;2.70;99.90;;;;;;5123621;27;20118;-62
2024/03/07 07:17:48;;;;;;;62.78;35.88;;;2.70;99.90;;;;;;5125462;27;20035;-62
2024/03/07 07:20:18;;;;;;;74.68;36.90;;;2.80;99.90;;;;;;5127951;27;20544;-63
2024/03/07 07:22:46;;;;;;;92.00;36.50;;;2.80;99.90;;;;;;5127794;27;20043;-62
2024/03/07 07:25:16;;;;;;;89.03;36.60;;;2.80;99.90;;;;;;5123787;27;20034;-62
2024/03/07 07:27:44;;;;;;;68.68;35.53;;;2.60;99.90;;;;;;5122608;27;20043;-62
2024/03/07 07:30:12;;;;;;;82.72;37.13;;;2.70;99.90;;;;;;5119366;27;20039;-62
2024/03/07 07:32:39;;;;;;;83.97;37.42;;;2.60;99.90;;;;;;5124504;27;20031;-63
2024/03/07 07:35:12;;;;;;;87.47;38.00;;;2.60;99.90;;;;;;5125676;27;20058;-62
2024/03/07 07:37:45;;;;;;;84.35;37.92;;;2.60;99.90;;;;;;5127990;27;20032;-62
2024/03/07 07:40:14;;;;;;;80.47;39.10;;;2.60;99.90;;;;;;5129786;27;20070;-62
2024/03/07 07:42:43;;;;;;;81.90;37.88;;;2.70;99.90;;;;;;5127596;27;20406;-62
2024/03/07 07:45:11;;;;;;;86.82;39.38;;;2.70;99.90;;;;;;5124700;27;20058;-62
2024/03/07 07:47:44;;;;;;;93.13;40.33;;;2.60;99.90;;;;;;5127909;27;20044;-61
2024/03/07 07:50:13;;;;;;;80.78;40.38;;;2.70;99.90;;;;;;5122399;27;20054;-62
2024/03/07 07:52:50;;;;;;;86.90;41.72;;;2.80;99.90;;;;;;5121377;27;20068;-62
2024/03/07 07:55:17;;;;;;;87.28;40.97;;;2.80;99.90;;;;;;5128642;27;20463;-63
2024/03/07 07:57:44;;;;;;;80.20;38.15;;;2.70;99.90;;;;;;5121813;27;21009;-62
2024/03/07 08:00:12;;;;;;;79.63;38.92;;;2.80;99.90;;;;;;5123631;27;20035;-63
2024/03/07 08:02:38;;;;;;;81.18;38.78;;;2.70;99.90;;;;;;5122687;27;20341;-62
2024/03/07 08:05:05;;;;;;;74.80;38.90;;;2.70;99.90;;;;;;5129642;27;20034;-62
2024/03/07 08:07:31;;;;;;;78.25;39.15;;;2.70;99.90;;;;;;5123558;27;20145;-62
2024/03/07 08:09:57;;;;;;;77.07;38.40;;;2.90;99.90;;;;;;5128461;27;20038;-61
2024/03/07 08:12:23;;;;;;;78.85;36.95;;;2.80;99.90;;;;;;5114583;27;20083;-61
2024/03/07 08:14:48;;;;;;;66.38;34.35;;;2.80;99.90;;;;;;5128730;27;20053;-61
2024/03/07 08:17:14;;;;;;;69.45;31.65;;;2.90;99.90;;;;;;5119624;27;20079;-62
2024/03/07 08:19:40;;;;;;;69.68;34.65;;;2.80;99.90;;;;;;5118371;27;20459;-61
2024/03/07 08:22:06;;;;;;;68.32;33.55;;;2.70;99.90;;;;;;5127746;27;20501;-62
2024/03/07 08:24:32;;;;;;;74.07;34.35;;;2.80;99.90;;;;;;5127370;27;20038;-61
2024/03/07 08:26:57;;;;;;;63.80;34.13;;;2.80;99.90;;;;;;5127915;27;20100;-62
2024/03/07 08:29:24;;;;;;;64.90;31.58;;;2.80;99.90;;;;;;5125576;27;20049;-62
2024/03/07 08:31:49;;;;;;;59.78;31.95;;;2.80;99.90;;;;;;5126545;27;20552;-63
2024/03/07 08:34:15;;;;;;;59.40;31.17;;;3.00;99.90;;;;;;5124513;27;20121;-62
2024/03/07 08:36:41;;;;;;;71.72;32.75;;;2.80;99.90;;;;;;5126258;27;20126;-61
2024/03/07 08:39:10;;;;;;;61.30;31.55;;;2.90;99.90;;;;;;5129713;27;20086;-61
2024/03/07 08:41:41;;;;;;;68.18;32.75;;;2.90;99.90;;;;;;5121223;27;20065;-61
2024/03/07 08:44:07;;;;;;;73.07;34.70;;;3.10;99.90;;;;;;5125341;27;20035;-62
2024/03/07 08:46:33;;;;;;;56.85;30.05;;;3.10;99.90;;;;;;5126975;27;20109;-61
2024/03/07 08:48:59;;;;;;;60.72;31.23;;;3.20;99.90;;;;;;5126085;27;20126;-61
2024/03/07 08:51:24;;;;;;;57.97;29.15;;;3.10;99.90;;;;;;5125161;27;20035;-62
2024/03/07 08:53:50;;;;;;;53.53;28.80;;;3.10;99.90;;;;;;5122118;27;20390;-62
2024/03/07 08:56:16;;;;;;;53.85;27.73;;;3.10;99.90;;;;;;5127369;27;20122;-63
2024/03/07 08:58:43;;;;;;;50.28;29.15;;;3.20;99.90;;;;;;5125490;27;20725;-62
2024/03/07 09:01:09;;;;;;;58.45;30.58;;;3.20;99.90;;;;;;5124702;27;20046;-63
2024/03/07 09:03:35;;;;;;;59.58;29.42;;;3.20;99.90;;;;;;5125790;27;20115;-62
2024/03/07 09:06:00;;;;;;;51.63;28.33;;;3.30;99.90;;;;;;5127509;27;20409;-62
2024/03/07 09:08:26;;;;;;;53.75;28.45;;;3.20;99.90;;;;;;5127778;27;20046;-62
2024/03/07 09:10:55;;;;;;;59.83;29.52;;;3.10;99.90;;;;;;5127786;27;20232;-62
2024/03/07 09:13:21;;;;;;;58.38;30.30;;;3.10;99.90;;;;;;5126987;27;20035;-62
2024/03/07 09:15:47;;;;;;;49.67;27.67;;;3.10;99.90;;;;;;5125293;27;20154;-62
2024/03/07 09:18:13;;;;;;;47.83;25.73;;;3.10;99.90;;;;;;5126853;27;20031;-62
2024/03/07 09:20:39;;;;;;;51.63;27.40;;;3.10;99.90;;;;;;5127647;27;20034;-62
2024/03/07 09:23:05;;;;;;;46.35;24.50;;;3.10;99.90;;;;;;5126419;27;20509;-62
2024/03/07 09:25:32;;;;;;;48.10;24.88;;;3.10;99.90;;;;;;5128285;27;20042;-63
2024/03/07 09:28:00;;;;;;;44.53;24.23;;;3.30;99.90;;;;;;5127442;27;20042;-62
2024/03/07 09:30:27;;;;;;;42.63;25.17;;;3.30;99.90;;;;;;5128444;27;20063;-62
2024/03/07 09:32:57;;;;;;;43.65;23.77;;;3.30;99.90;;;;;;5128302;27;20039;-62
2024/03/07 09:35:23;;;;;;;46.35;25.17;;;3.20;99.90;;;;;;5127312;27;20468;-62
2024/03/07 09:37:49;;;;;;;41.22;24.25;;;3.30;99.90;;;;;;5127168;27;20039;-62
2024/03/07 09:40:15;;;;;;;38.13;23.10;;;3.40;99.90;;;;;;5128829;27;20041;-63
2024/03/07 09:42:47;;;;;;;35.28;21.40;;;3.30;99.90;;;;;;5127913;27;20039;-63
2024/03/07 09:45:18;;;;;;;40.03;23.52;;;3.30;99.90;;;;;;5127003;27;20039;-62
2024/03/07 09:47:47;;;;;;;39.67;23.45;;;3.40;99.90;;;;;;5127478;27;20503;-62
2024/03/07 09:50:23;;;;;;;39.53;23.52;;;3.50;99.90;;;;;;5127983;27;20039;-62
2024/03/07 09:52:49;;;;;;;37.10;23.15;;;3.60;99.90;;;;;;5126262;27;20030;-63
2024/03/07 09:55:23;;;;;;;40.92;23.52;;;3.60;99.90;;;;;;5131604;27;20104;-61
2024/03/07 09:57:50;;;;;;;35.83;22.15;;;3.60;99.90;;;;;;5128302;27;20039;-62
2024/03/07 10:00:24;;;;;;;40.90;22.05;;;3.70;99.90;;;;;;5132752;27;20043;-63
2024/03/07 10:03:01;;;;;;;39.83;23.67;;;3.60;99.90;;;;;;5127857;27;20074;-62
2024/03/07 10:05:29;;;;;;;39.15;22.48;;;3.70;99.90;;;;;;5133048;27;20145;-62
2024/03/07 10:07:55;;;;;;;41.28;23.25;;;3.70;99.90;;;;;;5129511;27;20046;-62
2024/03/07 10:10:21;;;;;;;35.63;22.65;;;3.70;99.90;;;;;;5131949;27;20680;-62
2024/03/07 10:12:48;;;;;;;44.95;24.05;;;3.80;99.90;;;;;;5127716;27;20039;-62
2024/03/07 10:15:17;;;;;;;36.55;22.65;;;3.80;99.90;;;;;;5131282;27;20039;-62
2024/03/07 10:17:44;;;;;;;42.55;22.98;;;3.70;99.90;;;;;;5129618;27;20224;-62
2024/03/07 10:20:13;;;;;;;39.78;22.92;;;3.70;99.90;;;;;;5129746;27;20071;-62
2024/03/07 10:22:41;;;;;;;36.70;22.08;;;3.80;99.90;;;;;;5131836;27;20043;-62
2024/03/07 10:25:07;;;;;;;37.60;21.48;;;3.90;99.90;;;;;;5130261;27;20046;-62
2024/03/07 10:27:36;;;;;;;42.20;23.65;;;4.00;99.90;;;;;;5131939;27;20099;-61
2024/03/07 10:30:03;;;;;;;38.40;21.80;;;3.90;99.90;;;;;;5131200;27;20050;-60
2024/03/07 10:32:30;;;;;;;34.75;21.67;;;4.00;99.90;;;;;;5130203;27;20039;-61
2024/03/07 10:34:58;;;;;;;35.60;21.52;;;3.90;99.90;;;;;;5131904;27;20042;-61
2024/03/07 10:37:25;;;;;;;32.60;19.58;;;4.00;99.90;;;;;;5131638;27;20035;-62
2024/03/07 10:39:51;;;;;;;35.13;20.20;;;3.90;99.90;;;;;;5130983;27;20129;-61
2024/03/07 10:42:19;;;;;;;31.92;20.55;;;4.00;99.90;;;;;;5130719;27;20060;-61
2024/03/07 10:44:49;;;;;;;36.85;21.98;;;3.90;99.90;;;;;;5129608;27;20043;-62
2024/03/07 10:47:19;;;;;;;36.40;21.13;;;3.90;99.90;;;;;;5131954;27;20667;-61
2024/03/07 10:50:15;;;;;;;35.40;20.88;;;3.90;99.90;;;;;;5131251;27;20043;-61
2024/03/07 10:52:46;;;;;;;36.58;22.40;;;4.00;99.90;;;;;;5127550;27;20688;-62
2024/03/07 10:55:45;;;;;;;36.22;21.92;;;4.00;99.90;;;;;;5132407;27;20034;-61
2024/03/07 10:58:32;;;;;;;37.05;22.55;;;4.00;99.90;;;;;;5129296;27;20035;-61
2024/03/07 11:01:03;;;;;;;36.10;23.13;;;4.20;99.90;;;;;;5130685;27;20306;-61
2024/03/07 11:03:32;;;;;;;37.10;21.08;;;4.30;99.90;;;;;;5128317;27;20505;-61
2024/03/07 11:05:59;;;;;;;;;;;4.60;99.90;;;;;;5131322;27;20394;-61
2024/03/07 11:08:26;;;;;;;36.63;20.63;;;4.60;99.90;;;;;;5131602;27;19969;-61
2024/03/07 11:10:52;;;;;;;33.50;20.73;;;4.60;99.90;;;;;;5129905;27;20043;-62
2024/03/07 11:13:18;;;;;;;38.70;21.48;;;4.70;99.90;;;;;;5131822;27;20031;-60
2024/03/07 11:15:48;;;;;;;38.10;23.40;;;4.80;99.90;;;;;;5130402;27;20030;-62
2024/03/07 11:18:14;;;;;;;36.97;21.38;;;4.90;99.90;;;;;;5126816;27;20027;-62
2024/03/07 11:20:40;;;;;;;36.33;20.85;;;5.00;99.90;;;;;;5130369;27;20042;-62
2024/03/07 11:23:32;;;;;;;34.92;20.25;;;5.00;99.90;;;;;;5127227;27;20046;-62
2024/03/07 11:26:08;;;;;;;37.08;22.17;;;5.10;99.90;;;;;;5117326;27;20050;-62
2024/03/07 11:28:37;;;;;;;34.05;20.48;;;5.20;99.90;;;;;;5130329;27;20046;-63
2024/03/07 11:31:14;;;;;;;38.90;21.88;;;5.30;99.90;;;;;;5130210;27;20354;-63
2024/03/07 11:34:18;;;;;;;38.47;22.13;;;5.20;99.90;;;;;;5126070;27;20740;-62
2024/03/07 11:36:45;;;;;;;36.20;21.13;;;5.30;99.90;;;;;;5127160;27;20421;-62
2024/03/07 11:39:46;;;;;;;35.95;21.25;;;5.40;99.90;;;;;;5129993;27;20582;-63
2024/03/07 11:42:33;;;;;;;39.72;21.35;;;5.50;99.90;;;;;;5126936;27;20463;-62
2024/03/07 11:44:59;;;;;;;44.10;22.77;;;5.50;99.90;;;;;;5129096;27;20300;-62
2024/03/07 11:47:29;;;;;;;37.72;21.85;;;5.60;99.90;;;;;;5130090;27;20042;-62
2024/03/07 11:49:57;;;;;;;35.35;21.67;;;5.70;99.90;;;;;;5126806;27;20466;-62
2024/03/07 11:52:24;;;;;;;32.83;20.30;;;5.80;99.90;;;;;;5126123;27;20461;-61
2024/03/07 11:54:51;;;;;;;36.22;21.08;;;5.90;99.90;;;;;;5129050;27;20042;-61
2024/03/07 11:57:26;;;;;;;37.85;21.13;;;6.10;99.90;;;;;;5129135;27;20034;-62
2024/03/07 11:59:52;;;;;;;34.05;20.75;;;6.20;99.90;;;;;;5129895;27;20054;-61
2024/03/07 12:02:22;;;;;;;35.35;20.73;;;6.20;99.90;;;;;;5130277;27;20038;-61
2024/03/07 12:04:49;;;;;;;32.38;20.83;;;6.40;99.90;;;;;;5128265;27;20043;-62
2024/03/07 12:07:17;;;;;;;33.08;19.98;;;6.30;99.90;;;;;;5130197;27;20050;-61
2024/03/07 12:09:50;;;;;;;38.17;21.45;;;6.50;99.90;;;;;;5127669;27;20043;-62
2024/03/07 12:12:18;;;;;;;32.85;20.30;;;6.50;99.90;;;;;;5127074;27;20116;-62
2024/03/07 12:14:43;;;;;;;31.80;20.05;;;6.50;99.90;;;;;;5127771;27;20034;-62
2024/03/07 12:17:09;;;;;;;32.72;19.90;;;6.70;99.90;;;;;;5129091;27;20046;-62
2024/03/07 12:19:35;;;;;;;33.50;20.55;;;6.90;99.90;;;;;;5128320;27;20138;-52
2024/03/07 12:22:02;;;;;;;31.83;19.48;;;7.10;99.90;;;;;;5129149;27;20130;-62
2024/03/07 12:24:29;;;;;;;30.00;18.92;;;7.20;99.90;;;;;;5125953;27;20073;-62
2024/03/07 12:27:15;;;;;;;34.00;20.20;;;7.10;99.90;;;;;;5129757;27;20158;-61
2024/03/07 12:29:43;;;;;;;26.42;17.67;;;7.20;99.90;;;;;;5130383;27;20035;-62
2024/03/07 12:32:15;;;;;;;29.05;18.50;;;7.40;99.90;;;;;;5128388;27;20106;-61
2024/03/07 12:34:45;;;;;;;28.70;18.42;;;7.50;99.90;;;;;;5124086;27;20884;-61
2024/03/07 12:37:16;;;;;;;27.52;17.80;;;7.60;99.90;;;;;;5123099;27;20035;-62
2024/03/07 12:39:49;;;;;;;26.77;17.35;;;7.70;99.90;;;;;;5119486;27;20071;-62
2024/03/07 12:42:21;;;;;;;28.67;17.40;;;7.60;99.90;;;;;;5117138;27;20043;-62
2024/03/07 12:44:47;;;;;;;24.25;17.13;;;7.60;99.90;;;;;;5114612;27;20039;-63